Gillette, WY

7:08 PM MDT on July 23, 2014 (GMT -0600)
Gillette-Campbell County (KGCC) Elev 4364 ft | 44.34 °N, 105.54 °W | Change Station

Current weather conditions updated 15 minutes ago

Clear
Clear
86 °F
Feels Like 86 °F
N
20
Wind Variable Wind from SSE
Gusts 28 mph

Tomorrow is forecast to be nearly the same temperature as today.

Today
High -- | Low -- °F
--% Chance of Precip.
Yesterday
High -- | Low -- °F
Precip. -- in
5:39 AM 8:38 PM
Waning Crescent, 8% visible
Pressure 29.87 in
Visibility 7.0 miles
Clouds Scattered Clouds 2900 ft
Scattered Clouds 5500 ft
Scattered Clouds 11000 ft
Heat Index 86 °F
Dew Point 62 °F
Humidity 44%
Rainfall 0.00 in
Snow Depth Not available.
UV 1 out of 12
Pollen 6.20 out of 12
Air Quality Not available.
Flu Activity Not available.
METAR KGCC 240053Z AUTO 15017G24KT 7SM -RA SCT029 SCT055 SCT110 30/17 A3003 RMK AO2 TSB08E23RAB48 SLP114 P0000 T03000167

More Conditions Fewer Conditions

Pressure 29.87 in
Visibility 7.0 miles
Clouds Scattered Clouds 2900 ft
Scattered Clouds 5500 ft
Scattered Clouds 11000 ft
Heat Index 86 °F
Dew Point 62 °F
Humidity 44%
Rainfall 0.00 in
Snow Depth Not available.
UV 1 out of 12
Pollen 6.20 out of 12
Air Quality Not available.
Flu Activity Not available.
METAR KGCC 240053Z AUTO 15017G24KT 7SM -RA SCT029 SCT055 SCT110 30/17 A3003 RMK AO2 TSB08E23RAB48 SLP114 P0000 T03000167

More Conditions Fewer Conditions

10-Day Weather Forecast

Almanac

Astronomy

Jul. 23, 2014 Rise Set
Actual Time 5:39 AM MDT 8:38 PM MDT
Civil Twilight 5:05 AM MDT 9:12 PM MDT
Nautical Twilight 4:20 AM MDT 9:56 PM MDT
Astronomical Twilight 3:28 AM MDT 10:48 PM MDT
Moon 3:01 AM MDT (7/23) 6:08 PM MDT (7/23)
Length of Visible Light 16h 07m
Length of Day
14h 58m
Tomorrow will be 2m 2s shorter.
Waning Crescent, 8% of the Moon is Illuminated
Today
Waning Crescent
Jul 26
New
Aug 3
First Quarter
Aug 10
Full
Aug 17
Last Quarter

Today's Extremes

State Highs State Lows

Community

WunderPhotos

Upload Photos

1,736,839 photos uploaded!

Nearby

Snow Depth

Station Depth Elevation
Burroughs Creek 0 in 8750 ft
Big Sandy Opening 0 in 9080 ft
Crow Creek 0 in 8330 ft
Sandstone R.S. 5 in 8150 ft
Blind Bull Summit 0 in 8900 ft

Earthquake Activity

City Distance Mag. Time & Date
No recent earthquake activity has been reported nearby.
Minimum magnitude displayed is 2.5.

Coastal Water Temperatures

Place Temperature
No Stations Reporting

Nearby Weather Stations

Station Location Temp. Heat Index Dew Point Humidity Wind Precip. Elev Updated Type
RAWS ECHETA WY, Gillette, WY 93 °F 91 °F 56 °F 29% SE  at  22 mph 0.00 in / hr 4396 ft 5:51 PM MDT MADIS

Show More Stations Show Fewer Stations